sensor_id;sensor_type;location;lat;lon;timestamp;P1;durP1;ratioP1;P2;durP2;ratioP2
2452;SDS011;63678;47.994;7.854;2022-12-07T00:00:23;27.63;;;14.27;;
2452;SDS011;63678;47.994;7.854;2022-12-07T00:02:56;24.07;;;12.97;;
2452;SDS011;63678;47.994;7.854;2022-12-07T00:05:29;27.40;;;13.40;;
2452;SDS011;63678;47.994;7.854;2022-12-07T00:08:01;25.98;;;12.98;;
2452;SDS011;63678;47.994;7.854;2022-12-07T00:10:34;28.33;;;13.80;;
2452;SDS011;63678;47.994;7.854;2022-12-07T00:13:06;25.85;;;14.30;;
2452;SDS011;63678;47.994;7.854;2022-12-07T00:15:39;27.47;;;14.40;;
2452;SDS011;63678;47.994;7.854;2022-12-07T00:18:11;26.00;;;13.43;;
2452;SDS011;63678;47.994;7.854;2022-12-07T00:21:12;26.42;;;13.90;;
2452;SDS011;63678;47.994;7.854;2022-12-07T00:23:47;26.15;;;13.25;;
2452;SDS011;63678;47.994;7.854;2022-12-07T00:26:22;34.10;;;13.45;;
2452;SDS011;63678;47.994;7.854;2022-12-07T00:28:58;25.20;;;12.37;;
2452;SDS011;63678;47.994;7.854;2022-12-07T00:31:36;24.98;;;13.57;;
2452;SDS011;63678;47.994;7.854;2022-12-07T00:34:16;26.35;;;13.32;;
2452;SDS011;63678;47.994;7.854;2022-12-07T00:36:50;24.65;;;12.35;;
2452;SDS011;63678;47.994;7.854;2022-12-07T00:39:23;21.45;;;11.82;;
2452;SDS011;63678;47.994;7.854;2022-12-07T00:41:56;24.13;;;12.73;;
2452;SDS011;63678;47.994;7.854;2022-12-07T00:44:29;23.80;;;12.30;;
2452;SDS011;63678;47.994;7.854;2022-12-07T00:47:01;24.10;;;12.48;;
2452;SDS011;63678;47.994;7.854;2022-12-07T00:49:34;24.00;;;13.05;;
2452;SDS011;63678;47.994;7.854;2022-12-07T00:52:07;24.98;;;12.98;;
2452;SDS011;63678;47.994;7.854;2022-12-07T00:54:39;23.83;;;12.90;;
2452;SDS011;63678;47.994;7.854;2022-12-07T00:57:12;25.42;;;12.43;;
2452;SDS011;63678;47.994;7.854;2022-12-07T00:59:44;23.60;;;13.32;;
2452;SDS011;63678;47.994;7.854;2022-12-07T01:02:16;23.33;;;12.52;;
2452;SDS011;63678;47.994;7.854;2022-12-07T01:04:49;23.13;;;12.30;;
2452;SDS011;63678;47.994;7.854;2022-12-07T01:07:21;23.00;;;11.63;;
2452;SDS011;63678;47.994;7.854;2022-12-07T01:09:54;22.77;;;12.13;;
2452;SDS011;63678;47.994;7.854;2022-12-07T01:12:26;24.33;;;12.50;;
2452;SDS011;63678;47.994;7.854;2022-12-07T01:14:59;24.30;;;12.68;;
2452;SDS011;63678;47.994;7.854;2022-12-07T01:17:31;23.13;;;12.25;;
2452;SDS011;63678;47.994;7.854;2022-12-07T01:20:04;24.37;;;12.63;;
2452;SDS011;63678;47.994;7.854;2022-12-07T01:22:37;24.35;;;12.20;;
2452;SDS011;63678;47.994;7.854;2022-12-07T01:25:11;28.38;;;13.70;;
2452;SDS011;63678;47.994;7.854;2022-12-07T01:27:43;25.45;;;12.65;;
2452;SDS011;63678;47.994;7.854;2022-12-07T01:30:16;24.95;;;12.93;;
2452;SDS011;63678;47.994;7.854;2022-12-07T01:32:48;28.23;;;13.90;;
2452;SDS011;63678;47.994;7.854;2022-12-07T01:35:20;24.23;;;12.68;;
2452;SDS011;63678;47.994;7.854;2022-12-07T01:37:55;27.48;;;14.27;;
2452;SDS011;63678;47.994;7.854;2022-12-07T01:40:27;25.52;;;13.10;;
2452;SDS011;63678;47.994;7.854;2022-12-07T01:43:00;28.45;;;14.48;;
2452;SDS011;63678;47.994;7.854;2022-12-07T01:45:41;29.17;;;12.77;;
2452;SDS011;63678;47.994;7.854;2022-12-07T01:48:16;23.83;;;12.80;;
2452;SDS011;63678;47.994;7.854;2022-12-07T01:50:56;24.10;;;11.98;;
2452;SDS011;63678;47.994;7.854;2022-12-07T01:53:38;24.20;;;12.80;;
2452;SDS011;63678;47.994;7.854;2022-12-07T01:56:17;33.42;;;15.77;;
2452;SDS011;63678;47.994;7.854;2022-12-07T01:58:53;31.07;;;15.73;;
2452;SDS011;63678;47.994;7.854;2022-12-07T02:01:29;31.88;;;15.82;;
2452;SDS011;63678;47.994;7.854;2022-12-07T02:04:01;32.67;;;17.50;;
2452;SDS011;63678;47.994;7.854;2022-12-07T02:06:34;37.55;;;18.38;;
2452;SDS011;63678;47.994;7.854;2022-12-07T02:09:08;42.17;;;20.45;;
2452;SDS011;63678;47.994;7.854;2022-12-07T02:11:40;44.63;;;20.60;;
2452;SDS011;63678;47.994;7.854;2022-12-07T02:14:13;45.35;;;21.08;;
2452;SDS011;63678;47.994;7.854;2022-12-07T02:16:54;45.67;;;22.00;;
2452;SDS011;63678;47.994;7.854;2022-12-07T02:23:03;45.17;;;21.08;;
2452;SDS011;63678;47.994;7.854;2022-12-07T02:26:13;43.67;;;20.93;;
2452;SDS011;63678;47.994;7.854;2022-12-07T02:32:26;45.70;;;21.58;;
2452;SDS011;63678;47.994;7.854;2022-12-07T02:35:15;49.80;;;21.05;;
2452;SDS011;63678;47.994;7.854;2022-12-07T02:37:59;45.67;;;21.17;;
2452;SDS011;63678;47.994;7.854;2022-12-07T02:43:54;40.83;;;19.70;;
2452;SDS011;63678;47.994;7.854;2022-12-07T02:46:36;42.03;;;18.58;;
2452;SDS011;63678;47.994;7.854;2022-12-07T02:49:12;43.97;;;18.52;;
2452;SDS011;63678;47.994;7.854;2022-12-07T02:51:46;36.53;;;17.58;;
2452;SDS011;63678;47.994;7.854;2022-12-07T02:54:20;39.53;;;17.33;;
2452;SDS011;63678;47.994;7.854;2022-12-07T03:00:11;36.03;;;16.45;;
2452;SDS011;63678;47.994;7.854;2022-12-07T03:02:51;36.00;;;16.30;;
2452;SDS011;63678;47.994;7.854;2022-12-07T03:11:05;38.65;;;16.95;;
2452;SDS011;63678;47.994;7.854;2022-12-07T03:16:46;29.35;;;13.98;;
2452;SDS011;63678;47.994;7.854;2022-12-07T03:19:31;24.92;;;12.77;;
2452;SDS011;63678;47.994;7.854;2022-12-07T03:22:07;29.77;;;14.07;;
2452;SDS011;63678;47.994;7.854;2022-12-07T03:24:53;30.23;;;14.75;;
2452;SDS011;63678;47.994;7.854;2022-12-07T03:27:38;30.88;;;14.90;;
2452;SDS011;63678;47.994;7.854;2022-12-07T03:30:28;31.85;;;13.50;;
2452;SDS011;63678;47.994;7.854;2022-12-07T03:33:11;27.00;;;13.50;;
2452;SDS011;63678;47.994;7.854;2022-12-07T03:36:04;28.10;;;12.93;;
2452;SDS011;63678;47.994;7.854;2022-12-07T03:39:03;27.70;;;13.43;;
2452;SDS011;63678;47.994;7.854;2022-12-07T03:41:51;24.17;;;12.00;;
2452;SDS011;63678;47.994;7.854;2022-12-07T03:44:24;22.05;;;11.73;;
2452;SDS011;63678;47.994;7.854;2022-12-07T03:47:02;17.02;;;8.80;;
2452;SDS011;63678;47.994;7.854;2022-12-07T03:49:49;18.30;;;8.33;;
2452;SDS011;63678;47.994;7.854;2022-12-07T03:52:33;20.85;;;10.80;;
2452;SDS011;63678;47.994;7.854;2022-12-07T03:55:15;21.38;;;9.43;;
2452;SDS011;63678;47.994;7.854;2022-12-07T03:57:55;17.60;;;9.20;;
2452;SDS011;63678;47.994;7.854;2022-12-07T04:00:34;19.65;;;10.25;;
2452;SDS011;63678;47.994;7.854;2022-12-07T04:03:08;20.73;;;9.50;;
2452;SDS011;63678;47.994;7.854;2022-12-07T04:05:41;20.38;;;10.13;;
2452;SDS011;63678;47.994;7.854;2022-12-07T04:08:14;19.77;;;10.40;;
2452;SDS011;63678;47.994;7.854;2022-12-07T04:10:47;21.25;;;10.95;;
2452;SDS011;63678;47.994;7.854;2022-12-07T04:13:19;22.15;;;10.65;;
2452;SDS011;63678;47.994;7.854;2022-12-07T04:15:52;18.60;;;9.77;;
2452;SDS011;63678;47.994;7.854;2022-12-07T04:18:24;22.73;;;11.13;;
2452;SDS011;63678;47.994;7.854;2022-12-07T04:20:57;19.00;;;9.55;;
2452;SDS011;63678;47.994;7.854;2022-12-07T04:23:29;17.45;;;9.57;;
2452;SDS011;63678;47.994;7.854;2022-12-07T04:26:01;18.13;;;9.43;;
2452;SDS011;63678;47.994;7.854;2022-12-07T04:28:33;22.97;;;9.80;;
2452;SDS011;63678;47.994;7.854;2022-12-07T04:31:06;19.30;;;10.52;;
2452;SDS011;63678;47.994;7.854;2022-12-07T04:33:38;20.85;;;9.30;;
2452;SDS011;63678;47.994;7.854;2022-12-07T04:36:10;20.55;;;10.20;;
2452;SDS011;63678;47.994;7.854;2022-12-07T04:38:43;22.08;;;10.20;;
2452;SDS011;63678;47.994;7.854;2022-12-07T04:41:15;16.33;;;8.80;;
2452;SDS011;63678;47.994;7.854;2022-12-07T04:43:47;18.33;;;9.20;;
2452;SDS011;63678;47.994;7.854;2022-12-07T04:46:20;16.17;;;8.43;;
2452;SDS011;63678;47.994;7.854;2022-12-07T04:48:53;20.95;;;9.52;;
2452;SDS011;63678;47.994;7.854;2022-12-07T04:51:28;17.70;;;8.80;;
2452;SDS011;63678;47.994;7.854;2022-12-07T04:54:01;16.67;;;9.00;;
2452;SDS011;63678;47.994;7.854;2022-12-07T04:56:33;17.52;;;9.40;;
2452;SDS011;63678;47.994;7.854;2022-12-07T04:59:09;19.55;;;9.30;;
2452;SDS011;63678;47.994;7.854;2022-12-07T05:01:43;17.58;;;8.10;;
2452;SDS011;63678;47.994;7.854;2022-12-07T05:04:16;14.77;;;7.80;;
2452;SDS011;63678;47.994;7.854;2022-12-07T05:06:49;15.50;;;7.60;;
2452;SDS011;63678;47.994;7.854;2022-12-07T05:09:24;18.60;;;8.07;;
2452;SDS011;63678;47.994;7.854;2022-12-07T05:11:57;16.23;;;8.15;;
2452;SDS011;63678;47.994;7.854;2022-12-07T05:14:30;17.02;;;8.70;;
2452;SDS011;63678;47.994;7.854;2022-12-07T05:17:02;16.17;;;8.40;;
2452;SDS011;63678;47.994;7.854;2022-12-07T05:19:35;17.73;;;8.67;;
2452;SDS011;63678;47.994;7.854;2022-12-07T05:22:07;17.05;;;8.73;;
2452;SDS011;63678;47.994;7.854;2022-12-07T05:24:41;17.30;;;8.95;;
2452;SDS011;63678;47.994;7.854;2022-12-07T05:27:13;19.48;;;9.70;;
2452;SDS011;63678;47.994;7.854;2022-12-07T05:29:46;18.30;;;8.75;;
2452;SDS011;63678;47.994;7.854;2022-12-07T05:32:18;16.50;;;8.27;;
2452;SDS011;63678;47.994;7.854;2022-12-07T05:34:51;18.60;;;8.77;;
2452;SDS011;63678;47.994;7.854;2022-12-07T05:37:26;17.63;;;8.35;;
2452;SDS011;63678;47.994;7.854;2022-12-07T05:39:58;18.98;;;8.05;;
2452;SDS011;63678;47.994;7.854;2022-12-07T05:42:31;16.95;;;7.93;;
2452;SDS011;63678;47.994;7.854;2022-12-07T05:45:04;17.23;;;8.33;;
2452;SDS011;63678;47.994;7.854;2022-12-07T05:47:37;13.48;;;6.93;;
2452;SDS011;63678;47.994;7.854;2022-12-07T05:50:09;13.48;;;6.22;;
2452;SDS011;63678;47.994;7.854;2022-12-07T05:52:44;11.95;;;6.45;;
2452;SDS011;63678;47.994;7.854;2022-12-07T05:55:16;12.75;;;6.53;;
2452;SDS011;63678;47.994;7.854;2022-12-07T05:57:49;14.20;;;6.20;;
2452;SDS011;63678;47.994;7.854;2022-12-07T06:00:40;12.77;;;6.35;;
2452;SDS011;63678;47.994;7.854;2022-12-07T06:03:12;11.90;;;6.45;;
2452;SDS011;63678;47.994;7.854;2022-12-07T06:05:45;14.95;;;7.05;;
2452;SDS011;63678;47.994;7.854;2022-12-07T06:08:17;15.05;;;7.68;;
2452;SDS011;63678;47.994;7.854;2022-12-07T06:10:50;13.73;;;6.40;;
2452;SDS011;63678;47.994;7.854;2022-12-07T06:13:42;13.40;;;6.43;;
2452;SDS011;63678;47.994;7.854;2022-12-07T06:16:18;13.23;;;6.50;;
2452;SDS011;63678;47.994;7.854;2022-12-07T06:18:51;14.48;;;7.07;;
2452;SDS011;63678;47.994;7.854;2022-12-07T06:21:25;15.30;;;7.03;;
2452;SDS011;63678;47.994;7.854;2022-12-07T06:23:58;13.87;;;7.20;;
2452;SDS011;63678;47.994;7.854;2022-12-07T06:26:31;13.55;;;6.95;;
2452;SDS011;63678;47.994;7.854;2022-12-07T06:29:03;13.05;;;6.57;;
2452;SDS011;63678;47.994;7.854;2022-12-07T06:31:36;14.85;;;7.43;;
2452;SDS011;63678;47.994;7.854;2022-12-07T06:34:10;10.32;;;5.80;;
2452;SDS011;63678;47.994;7.854;2022-12-07T06:36:49;15.20;;;7.80;;
2452;SDS011;63678;47.994;7.854;2022-12-07T06:39:27;15.10;;;7.28;;
2452;SDS011;63678;47.994;7.854;2022-12-07T06:42:01;17.15;;;9.02;;
2452;SDS011;63678;47.994;7.854;2022-12-07T06:44:34;16.08;;;7.05;;
2452;SDS011;63678;47.994;7.854;2022-12-07T06:47:06;16.63;;;8.05;;
2452;SDS011;63678;47.994;7.854;2022-12-07T06:49:59;15.17;;;7.70;;
2452;SDS011;63678;47.994;7.854;2022-12-07T06:52:32;15.73;;;7.78;;
2452;SDS011;63678;47.994;7.854;2022-12-07T06:55:05;15.52;;;8.07;;
2452;SDS011;63678;47.994;7.854;2022-12-07T06:57:38;15.20;;;7.70;;
2452;SDS011;63678;47.994;7.854;2022-12-07T07:00:10;11.85;;;6.35;;
2452;SDS011;63678;47.994;7.854;2022-12-07T07:02:52;14.70;;;6.70;;
2452;SDS011;63678;47.994;7.854;2022-12-07T07:05:25;12.93;;;6.78;;
2452;SDS011;63678;47.994;7.854;2022-12-07T07:07:57;12.82;;;7.07;;
2452;SDS011;63678;47.994;7.854;2022-12-07T07:10:50;13.15;;;7.07;;
2452;SDS011;63678;47.994;7.854;2022-12-07T07:13:44;15.63;;;7.03;;
2452;SDS011;63678;47.994;7.854;2022-12-07T07:16:17;16.03;;;7.80;;
2452;SDS011;63678;47.994;7.854;2022-12-07T07:18:49;15.70;;;7.57;;
2452;SDS011;63678;47.994;7.854;2022-12-07T07:21:22;18.88;;;7.90;;
2452;SDS011;63678;47.994;7.854;2022-12-07T07:23:54;15.98;;;7.10;;
2452;SDS011;63678;47.994;7.854;2022-12-07T07:26:26;15.18;;;7.85;;
2452;SDS011;63678;47.994;7.854;2022-12-07T07:28:59;15.60;;;8.00;;
2452;SDS011;63678;47.994;7.854;2022-12-07T07:31:31;14.35;;;7.07;;
2452;SDS011;63678;47.994;7.854;2022-12-07T07:34:04;14.02;;;8.15;;
2452;SDS011;63678;47.994;7.854;2022-12-07T07:36:36;16.83;;;7.93;;
2452;SDS011;63678;47.994;7.854;2022-12-07T07:39:09;26.02;;;8.38;;
2452;SDS011;63678;47.994;7.854;2022-12-07T07:41:44;24.00;;;8.13;;
2452;SDS011;63678;47.994;7.854;2022-12-07T07:44:23;25.70;;;8.60;;
2452;SDS011;63678;47.994;7.854;2022-12-07T07:47:02;19.42;;;8.30;;
2452;SDS011;63678;47.994;7.854;2022-12-07T07:49:35;16.00;;;7.30;;
2452;SDS011;63678;47.994;7.854;2022-12-07T07:52:07;15.18;;;7.55;;
2452;SDS011;63678;47.994;7.854;2022-12-07T07:54:40;15.67;;;7.50;;
2452;SDS011;63678;47.994;7.854;2022-12-07T07:57:13;18.10;;;8.13;;
2452;SDS011;63678;47.994;7.854;2022-12-07T07:59:52;15.32;;;8.10;;
2452;SDS011;63678;47.994;7.854;2022-12-07T08:02:24;17.05;;;8.10;;
2452;SDS011;63678;47.994;7.854;2022-12-07T08:04:56;17.27;;;8.52;;
2452;SDS011;63678;47.994;7.854;2022-12-07T08:07:29;14.30;;;7.63;;
2452;SDS011;63678;47.994;7.854;2022-12-07T08:10:01;15.27;;;7.55;;
2452;SDS011;63678;47.994;7.854;2022-12-07T08:12:35;14.52;;;7.95;;
2452;SDS011;63678;47.994;7.854;2022-12-07T08:15:32;15.52;;;7.57;;
2452;SDS011;63678;47.994;7.854;2022-12-07T08:18:05;14.27;;;7.45;;
2452;SDS011;63678;47.994;7.854;2022-12-07T08:20:38;11.10;;;6.43;;
2452;SDS011;63678;47.994;7.854;2022-12-07T08:23:11;15.15;;;7.63;;
2452;SDS011;63678;47.994;7.854;2022-12-07T08:25:43;15.68;;;8.25;;
2452;SDS011;63678;47.994;7.854;2022-12-07T08:28:15;14.32;;;7.82;;
2452;SDS011;63678;47.994;7.854;2022-12-07T08:30:48;14.68;;;7.75;;
2452;SDS011;63678;47.994;7.854;2022-12-07T08:33:21;22.63;;;9.43;;
2452;SDS011;63678;47.994;7.854;2022-12-07T08:35:54;18.55;;;9.55;;
2452;SDS011;63678;47.994;7.854;2022-12-07T08:38:33;14.13;;;7.07;;
2452;SDS011;63678;47.994;7.854;2022-12-07T08:41:07;14.75;;;8.00;;
2452;SDS011;63678;47.994;7.854;2022-12-07T08:43:40;17.27;;;9.20;;
2452;SDS011;63678;47.994;7.854;2022-12-07T08:46:19;12.73;;;7.23;;
2452;SDS011;63678;47.994;7.854;2022-12-07T08:48:58;13.65;;;7.40;;
2452;SDS011;63678;47.994;7.854;2022-12-07T08:51:37;14.15;;;7.80;;
2452;SDS011;63678;47.994;7.854;2022-12-07T08:54:14;14.73;;;7.70;;
2452;SDS011;63678;47.994;7.854;2022-12-07T08:56:49;14.30;;;7.60;;
2452;SDS011;63678;47.994;7.854;2022-12-07T08:59:29;13.70;;;6.57;;
2452;SDS011;63678;47.994;7.854;2022-12-07T09:02:03;14.75;;;7.50;;
2452;SDS011;63678;47.994;7.854;2022-12-07T09:04:36;12.95;;;6.93;;
2452;SDS011;63678;47.994;7.854;2022-12-07T09:07:11;12.98;;;6.80;;
2452;SDS011;63678;47.994;7.854;2022-12-07T09:09:43;12.27;;;5.93;;
2452;SDS011;63678;47.994;7.854;2022-12-07T09:12:15;10.73;;;6.17;;
2452;SDS011;63678;47.994;7.854;2022-12-07T09:14:51;12.63;;;6.07;;
2452;SDS011;63678;47.994;7.854;2022-12-07T09:17:23;11.32;;;6.13;;
2452;SDS011;63678;47.994;7.854;2022-12-07T09:19:56;14.90;;;7.95;;
2452;SDS011;63678;47.994;7.854;2022-12-07T09:22:29;10.50;;;5.75;;
2452;SDS011;63678;47.994;7.854;2022-12-07T09:25:03;9.93;;;5.73;;
2452;SDS011;63678;47.994;7.854;2022-12-07T09:27:36;10.68;;;5.97;;
2452;SDS011;63678;47.994;7.854;2022-12-07T09:30:09;11.27;;;6.35;;
2452;SDS011;63678;47.994;7.854;2022-12-07T09:32:41;10.70;;;6.13;;
2452;SDS011;63678;47.994;7.854;2022-12-07T09:35:14;9.43;;;6.07;;
2452;SDS011;63678;47.994;7.854;2022-12-07T09:37:47;9.97;;;6.30;;
2452;SDS011;63678;47.994;7.854;2022-12-07T09:40:20;13.32;;;6.93;;
2452;SDS011;63678;47.994;7.854;2022-12-07T09:42:58;12.75;;;7.55;;
2452;SDS011;63678;47.994;7.854;2022-12-07T09:45:34;15.13;;;7.03;;
2452;SDS011;63678;47.994;7.854;2022-12-07T09:48:14;10.70;;;6.32;;
2452;SDS011;63678;47.994;7.854;2022-12-07T09:51:02;12.37;;;6.80;;
2452;SDS011;63678;47.994;7.854;2022-12-07T09:53:54;12.10;;;6.75;;
2452;SDS011;63678;47.994;7.854;2022-12-07T09:56:29;12.23;;;6.47;;
2452;SDS011;63678;47.994;7.854;2022-12-07T09:59:02;13.82;;;7.03;;
2452;SDS011;63678;47.994;7.854;2022-12-07T10:01:37;10.02;;;6.22;;
2452;SDS011;63678;47.994;7.854;2022-12-07T10:04:12;11.43;;;6.40;;
2452;SDS011;63678;47.994;7.854;2022-12-07T10:06:50;8.65;;;5.68;;
2452;SDS011;63678;47.994;7.854;2022-12-07T10:09:23;9.70;;;6.25;;
2452;SDS011;63678;47.994;7.854;2022-12-07T10:12:03;10.70;;;6.18;;
2452;SDS011;63678;47.994;7.854;2022-12-07T10:14:39;10.60;;;6.05;;
2452;SDS011;63678;47.994;7.854;2022-12-07T10:17:39;11.13;;;6.20;;
2452;SDS011;63678;47.994;7.854;2022-12-07T10:20:20;10.98;;;6.10;;
2452;SDS011;63678;47.994;7.854;2022-12-07T10:25:39;8.95;;;5.15;;
2452;SDS011;63678;47.994;7.854;2022-12-07T10:28:15;8.40;;;4.60;;
2452;SDS011;63678;47.994;7.854;2022-12-07T10:31:02;7.23;;;4.13;;
2452;SDS011;63678;47.994;7.854;2022-12-07T10:34:43;7.38;;;4.40;;
2452;SDS011;63678;47.994;7.854;2022-12-07T10:42:28;9.00;;;4.50;;
2452;SDS011;63678;47.994;7.854;2022-12-07T10:45:07;10.77;;;4.60;;
2452;SDS011;63678;47.994;7.854;2022-12-07T10:48:06;8.50;;;3.80;;
2452;SDS011;63678;47.994;7.854;2022-12-07T10:57:30;7.90;;;4.40;;
2452;SDS011;63678;47.994;7.854;2022-12-07T11:00:28;6.40;;;3.97;;
2452;SDS011;63678;47.994;7.854;2022-12-07T11:06:57;7.03;;;3.83;;
2452;SDS011;63678;47.994;7.854;2022-12-07T11:09:57;6.43;;;3.08;;
2452;SDS011;63678;47.994;7.854;2022-12-07T11:13:09;6.30;;;3.40;;
2452;SDS011;63678;47.994;7.854;2022-12-07T11:16:16;5.97;;;3.70;;
2452;SDS011;63678;47.994;7.854;2022-12-07T11:22:01;6.82;;;3.20;;
2452;SDS011;63678;47.994;7.854;2022-12-07T11:24:46;9.63;;;3.53;;
2452;SDS011;63678;47.994;7.854;2022-12-07T11:28:00;7.32;;;3.60;;
2452;SDS011;63678;47.994;7.854;2022-12-07T11:42:00;5.88;;;2.75;;
2452;SDS011;63678;47.994;7.854;2022-12-07T11:53:20;9.85;;;3.80;;
2452;SDS011;63678;47.994;7.854;2022-12-07T11:56:19;9.20;;;3.40;;
2452;SDS011;63678;47.994;7.854;2022-12-07T11:59:02;6.63;;;3.27;;
2452;SDS011;63678;47.994;7.854;2022-12-07T12:07:38;8.35;;;4.13;;
2452;SDS011;63678;47.994;7.854;2022-12-07T12:20:19;10.18;;;5.18;;
2452;SDS011;63678;47.994;7.854;2022-12-07T12:22:58;6.80;;;3.40;;
2452;SDS011;63678;47.994;7.854;2022-12-07T12:25:51;6.70;;;3.47;;
2452;SDS011;63678;47.994;7.854;2022-12-07T12:33:53;6.55;;;3.83;;
2452;SDS011;63678;47.994;7.854;2022-12-07T12:39:20;7.65;;;4.15;;
2452;SDS011;63678;47.994;7.854;2022-12-07T12:41:55;7.77;;;4.07;;
2452;SDS011;63678;47.994;7.854;2022-12-07T12:47:04;9.32;;;4.18;;
2452;SDS011;63678;47.994;7.854;2022-12-07T12:50:25;7.93;;;4.45;;
2452;SDS011;63678;47.994;7.854;2022-12-07T12:56:10;8.50;;;4.17;;
2452;SDS011;63678;47.994;7.854;2022-12-07T12:58:50;9.10;;;4.40;;
2452;SDS011;63678;47.994;7.854;2022-12-07T13:02:10;11.35;;;5.10;;
2452;SDS011;63678;47.994;7.854;2022-12-07T13:04:59;9.75;;;4.00;;
2452;SDS011;63678;47.994;7.854;2022-12-07T13:12:55;8.80;;;4.22;;
2452;SDS011;63678;47.994;7.854;2022-12-07T13:15:54;12.52;;;5.28;;
2452;SDS011;63678;47.994;7.854;2022-12-07T13:18:46;10.82;;;4.63;;
2452;SDS011;63678;47.994;7.854;2022-12-07T13:23:55;11.17;;;5.33;;
2452;SDS011;63678;47.994;7.854;2022-12-07T13:29:12;10.75;;;5.60;;
2452;SDS011;63678;47.994;7.854;2022-12-07T13:31:49;10.52;;;5.22;;
2452;SDS011;63678;47.994;7.854;2022-12-07T13:40:19;11.88;;;5.07;;
2452;SDS011;63678;47.994;7.854;2022-12-07T13:42:57;10.27;;;5.10;;
2452;SDS011;63678;47.994;7.854;2022-12-07T13:45:35;9.07;;;4.78;;
2452;SDS011;63678;47.994;7.854;2022-12-07T13:51:26;10.60;;;4.70;;
2452;SDS011;63678;47.994;7.854;2022-12-07T13:54:00;10.45;;;5.43;;
2452;SDS011;63678;47.994;7.854;2022-12-07T13:56:41;9.82;;;5.88;;
2452;SDS011;63678;47.994;7.854;2022-12-07T13:59:18;20.83;;;5.55;;
2452;SDS011;63678;47.994;7.854;2022-12-07T14:01:54;10.27;;;5.13;;
2452;SDS011;63678;47.994;7.854;2022-12-07T14:04:36;9.67;;;5.30;;
2452;SDS011;63678;47.994;7.854;2022-12-07T14:07:18;11.10;;;5.43;;
2452;SDS011;63678;47.994;7.854;2022-12-07T14:09:59;10.43;;;5.28;;
2452;SDS011;63678;47.994;7.854;2022-12-07T14:12:36;10.75;;;4.90;;
2452;SDS011;63678;47.994;7.854;2022-12-07T14:15:17;8.82;;;4.93;;
2452;SDS011;63678;47.994;7.854;2022-12-07T14:17:54;10.33;;;5.70;;
2452;SDS011;63678;47.994;7.854;2022-12-07T14:20:28;12.07;;;5.72;;
2452;SDS011;63678;47.994;7.854;2022-12-07T14:23:23;10.98;;;5.20;;
2452;SDS011;63678;47.994;7.854;2022-12-07T14:26:14;11.13;;;6.38;;
2452;SDS011;63678;47.994;7.854;2022-12-07T14:28:50;13.02;;;6.32;;
2452;SDS011;63678;47.994;7.854;2022-12-07T14:31:23;10.73;;;5.57;;
2452;SDS011;63678;47.994;7.854;2022-12-07T14:34:01;12.05;;;6.15;;
2452;SDS011;63678;47.994;7.854;2022-12-07T14:36:33;13.10;;;6.13;;
2452;SDS011;63678;47.994;7.854;2022-12-07T14:39:06;10.55;;;5.88;;
2452;SDS011;63678;47.994;7.854;2022-12-07T14:41:44;12.68;;;5.82;;
2452;SDS011;63678;47.994;7.854;2022-12-07T14:44:22;9.40;;;5.27;;
2452;SDS011;63678;47.994;7.854;2022-12-07T14:47:02;10.57;;;5.63;;
2452;SDS011;63678;47.994;7.854;2022-12-07T14:49:55;10.65;;;5.90;;
2452;SDS011;63678;47.994;7.854;2022-12-07T14:52:32;10.88;;;5.70;;
2452;SDS011;63678;47.994;7.854;2022-12-07T14:55:29;11.35;;;5.35;;
2452;SDS011;63678;47.994;7.854;2022-12-07T14:58:03;13.37;;;6.47;;
2452;SDS011;63678;47.994;7.854;2022-12-07T15:00:35;13.15;;;7.75;;
2452;SDS011;63678;47.994;7.854;2022-12-07T15:03:08;10.32;;;6.13;;
2452;SDS011;63678;47.994;7.854;2022-12-07T15:05:40;10.93;;;6.65;;
2452;SDS011;63678;47.994;7.854;2022-12-07T15:08:13;11.20;;;6.15;;
2452;SDS011;63678;47.994;7.854;2022-12-07T15:10:46;13.83;;;5.67;;
2452;SDS011;63678;47.994;7.854;2022-12-07T15:13:18;15.60;;;5.45;;
2452;SDS011;63678;47.994;7.854;2022-12-07T15:16:13;11.52;;;6.70;;
2452;SDS011;63678;47.994;7.854;2022-12-07T15:18:51;17.60;;;6.38;;
2452;SDS011;63678;47.994;7.854;2022-12-07T15:21:43;10.45;;;5.80;;
2452;SDS011;63678;47.994;7.854;2022-12-07T15:24:16;10.30;;;5.50;;
2452;SDS011;63678;47.994;7.854;2022-12-07T15:26:48;14.00;;;6.57;;
2452;SDS011;63678;47.994;7.854;2022-12-07T15:29:21;10.88;;;5.32;;
2452;SDS011;63678;47.994;7.854;2022-12-07T15:31:54;13.45;;;6.85;;
2452;SDS011;63678;47.994;7.854;2022-12-07T15:34:29;16.17;;;8.70;;
2452;SDS011;63678;47.994;7.854;2022-12-07T15:37:10;13.83;;;7.00;;
2452;SDS011;63678;47.994;7.854;2022-12-07T15:39:42;15.57;;;6.35;;
2452;SDS011;63678;47.994;7.854;2022-12-07T15:42:15;11.65;;;6.30;;
2452;SDS011;63678;47.994;7.854;2022-12-07T15:44:47;11.73;;;6.30;;
2452;SDS011;63678;47.994;7.854;2022-12-07T15:47:39;14.82;;;6.95;;
2452;SDS011;63678;47.994;7.854;2022-12-07T15:50:33;12.67;;;6.13;;
2452;SDS011;63678;47.994;7.854;2022-12-07T15:53:06;15.15;;;7.18;;
2452;SDS011;63678;47.994;7.854;2022-12-07T15:55:39;14.23;;;7.13;;
2452;SDS011;63678;47.994;7.854;2022-12-07T15:58:11;13.35;;;6.70;;
2452;SDS011;63678;47.994;7.854;2022-12-07T16:00:44;12.75;;;6.65;;
2452;SDS011;63678;47.994;7.854;2022-12-07T16:03:17;17.17;;;7.63;;
2452;SDS011;63678;47.994;7.854;2022-12-07T16:05:50;15.20;;;7.55;;
2452;SDS011;63678;47.994;7.854;2022-12-07T16:08:23;14.20;;;6.60;;
2452;SDS011;63678;47.994;7.854;2022-12-07T16:10:59;11.48;;;6.03;;
2452;SDS011;63678;47.994;7.854;2022-12-07T16:13:37;12.40;;;7.03;;
2452;SDS011;63678;47.994;7.854;2022-12-07T16:16:12;18.20;;;6.63;;
2452;SDS011;63678;47.994;7.854;2022-12-07T16:18:46;12.23;;;6.15;;
2452;SDS011;63678;47.994;7.854;2022-12-07T16:21:19;15.80;;;7.57;;
2452;SDS011;63678;47.994;7.854;2022-12-07T16:23:57;14.90;;;7.30;;
2452;SDS011;63678;47.994;7.854;2022-12-07T16:26:31;14.07;;;7.00;;
2452;SDS011;63678;47.994;7.854;2022-12-07T16:29:03;14.97;;;6.67;;
2452;SDS011;63678;47.994;7.854;2022-12-07T16:31:36;18.85;;;7.95;;
2452;SDS011;63678;47.994;7.854;2022-12-07T16:34:08;11.82;;;6.35;;
2452;SDS011;63678;47.994;7.854;2022-12-07T16:36:41;16.42;;;7.30;;
2452;SDS011;63678;47.994;7.854;2022-12-07T16:39:33;13.73;;;6.60;;
2452;SDS011;63678;47.994;7.854;2022-12-07T16:42:05;13.73;;;6.60;;
2452;SDS011;63678;47.994;7.854;2022-12-07T16:44:38;15.90;;;7.03;;
2452;SDS011;63678;47.994;7.854;2022-12-07T16:47:10;15.25;;;6.88;;
2452;SDS011;63678;47.994;7.854;2022-12-07T16:49:43;13.15;;;7.50;;
2452;SDS011;63678;47.994;7.854;2022-12-07T16:52:16;15.38;;;7.95;;
2452;SDS011;63678;47.994;7.854;2022-12-07T16:54:51;23.17;;;13.73;;
2452;SDS011;63678;47.994;7.854;2022-12-07T16:57:24;22.23;;;13.60;;
2452;SDS011;63678;47.994;7.854;2022-12-07T16:59:56;16.38;;;9.50;;
2452;SDS011;63678;47.994;7.854;2022-12-07T17:02:29;16.52;;;8.07;;
2452;SDS011;63678;47.994;7.854;2022-12-07T17:05:01;17.40;;;8.88;;
2452;SDS011;63678;47.994;7.854;2022-12-07T17:07:34;20.13;;;9.53;;
2452;SDS011;63678;47.994;7.854;2022-12-07T17:10:07;22.80;;;9.93;;
2452;SDS011;63678;47.994;7.854;2022-12-07T17:12:40;18.15;;;9.80;;
2452;SDS011;63678;47.994;7.854;2022-12-07T17:15:13;16.52;;;8.63;;
2452;SDS011;63678;47.994;7.854;2022-12-07T17:17:52;16.83;;;8.80;;
2452;SDS011;63678;47.994;7.854;2022-12-07T17:20:27;15.73;;;8.13;;
2452;SDS011;63678;47.994;7.854;2022-12-07T17:22:59;15.52;;;7.75;;
2452;SDS011;63678;47.994;7.854;2022-12-07T17:25:32;15.65;;;7.95;;
2452;SDS011;63678;47.994;7.854;2022-12-07T17:28:05;15.05;;;7.50;;
2452;SDS011;63678;47.994;7.854;2022-12-07T17:30:38;13.63;;;7.65;;
2452;SDS011;63678;47.994;7.854;2022-12-07T17:33:11;14.53;;;7.63;;
2452;SDS011;63678;47.994;7.854;2022-12-07T17:35:44;14.95;;;6.82;;
2452;SDS011;63678;47.994;7.854;2022-12-07T17:38:16;13.68;;;7.00;;